Time,TemperatureF,DewpointF,PressureIn,WindDirection,WindDirectionDegrees,WindSpeedMPH,WindSpeedGustMPH,Humidity,HourlyPrecipIn,Conditions,Clouds,dailyrainin,SoftwareType,DateUTC
2013-04-09 00:03:00,62.0,56.0,-100.00,SSW,195,4.0,7.0,79,0.00,,,-99.99,,2013-04-09 04:03:00,
2013-04-09 00:13:00,62.0,56.0,-100.00,SSW,195,4.0,7.0,79,0.00,,,-99.99,,2013-04-09 04:13:00,
2013-04-09 00:23:00,62.0,55.0,-100.00,WNW,285,4.0,6.0,80,0.00,,,-99.99,,2013-04-09 04:23:00,
2013-04-09 00:32:00,62.0,56.0,-100.00,West,265,1.0,5.0,79,0.55,,,-99.99,,2013-04-09 04:32:00,
2013-04-09 00:42:00,62.0,56.0,-100.00,West,270,1.0,3.0,80,1.10,,,-99.99,,2013-04-09 04:42:00,
2013-04-09 00:53:00,62.0,56.0,-100.00,West,270,1.0,3.0,80,1.10,,,-99.99,,2013-04-09 04:53:00,
2013-04-09 01:02:00,61.0,56.0,-100.00,NNW,335,2.0,5.0,83,0.00,,,-99.99,,2013-04-09 05:02:00,
2013-04-09 01:12:00,61.0,56.0,-100.00,North,0,1.0,3.0,82,0.00,,,-99.99,,2013-04-09 05:12:00,
2013-04-09 01:22:00,61.0,55.0,-100.00,NW,325,2.0,5.0,81,0.00,,,-99.99,,2013-04-09 05:22:00,
2013-04-09 01:32:00,60.0,55.0,-100.00,WSW,240,0.0,3.0,84,0.00,,,-99.99,,2013-04-09 05:32:00,
2013-04-09 01:42:00,61.0,55.0,-100.00,WNW,290,1.0,6.0,83,0.00,,,-99.99,,2013-04-09 05:42:00,
2013-04-09 01:52:00,60.0,55.0,-100.00,NNW,335,0.0,2.0,84,0.00,,,-99.99,,2013-04-09 05:52:00,
2013-04-09 02:02:00,60.0,55.0,-100.00,West,280,0.0,1.0,84,0.00,,,-99.99,,2013-04-09 06:02:00,
2013-04-09 02:12:00,59.0,55.0,-100.00,North,10,0.0,2.0,88,0.00,,,-99.99,,2013-04-09 06:12:00,
2013-04-09 02:22:00,59.0,55.0,-100.00,North,10,1.0,2.0,88,0.00,,,-99.99,,2013-04-09 06:22:00,
2013-04-09 02:32:00,58.0,54.0,-100.00,WNW,285,0.0,2.0,87,0.00,,,-99.99,,2013-04-09 06:32:00,
2013-04-09 02:42:00,58.0,55.0,-100.00,SSW,210,0.0,1.0,87,0.00,,,-99.99,,2013-04-09 06:42:00,
2013-04-09 02:52:00,58.0,54.0,-100.00,ESE,120,0.0,4.0,87,0.00,,,-99.99,,2013-04-09 06:52:00,
2013-04-09 03:02:00,57.0,54.0,-100.00,West,265,1.0,2.0,89,0.00,,,-99.99,,2013-04-09 07:02:00,
2013-04-09 03:13:00,57.0,53.0,-100.00,ENE,65,0.0,3.0,88,0.00,,,-99.99,,2013-04-09 07:13:00,
2013-04-09 03:22:00,56.0,53.0,-100.00,South,185,0.0,2.0,90,0.00,,,-99.99,,2013-04-09 07:22:00,
2013-04-09 03:32:00,56.0,53.0,-100.00,North,0,1.0,3.0,90,0.00,,,-99.99,,2013-04-09 07:32:00,
2013-04-09 03:42:00,56.0,53.0,-100.00,NNW,340,1.0,3.0,88,0.00,,,-99.99,,2013-04-09 07:42:00,
2013-04-09 03:52:00,56.0,51.0,-100.00,NE,35,1.0,4.0,85,0.00,,,-99.99,,2013-04-09 07:52:00,
2013-04-09 04:03:00,56.0,50.0,-100.00,ENE,65,1.0,3.0,81,0.00,,,-99.99,,2013-04-09 08:03:00,
2013-04-09 04:12:00,55.0,49.0,-100.00,NNE,25,2.0,5.0,80,0.00,,,-99.99,,2013-04-09 08:12:00,
2013-04-09 04:22:00,55.0,49.0,-100.00,NE,55,0.0,3.0,79,0.00,,,-99.99,,2013-04-09 08:22:00,
2013-04-09 04:32:00,54.0,48.0,-100.00,East,95,2.0,3.0,80,0.00,,,-99.99,,2013-04-09 08:32:00,
2013-04-09 04:42:00,51.0,48.0,-100.00,ESE,105,2.0,3.0,89,0.00,,,-99.99,,2013-04-09 08:42:00,
2013-04-09 04:52:00,51.0,47.0,-100.00,East,95,3.0,4.0,87,0.00,,,-99.99,,2013-04-09 08:52:00,
2013-04-09 05:02:00,52.0,47.0,-100.00,East,85,4.0,5.0,84,0.00,,,-99.99,,2013-04-09 09:02:00,
2013-04-09 05:12:00,52.0,47.0,-100.00,East,85,3.0,5.0,83,0.00,,,-99.99,,2013-04-09 09:12:00,
2013-04-09 05:22:00,52.0,48.0,-100.00,East,80,5.0,6.0,86,0.00,,,-99.99,,2013-04-09 09:22:00,
2013-04-09 05:33:00,53.0,49.0,-100.00,East,80,6.0,7.0,88,0.00,,,-99.99,,2013-04-09 09:33:00,
2013-04-09 05:43:00,53.0,49.0,-100.00,East,85,5.0,7.0,87,0.00,,,-99.99,,2013-04-09 09:43:00,
2013-04-09 05:52:00,52.0,49.0,-100.00,East,80,5.0,6.0,89,0.00,,,-99.99,,2013-04-09 09:52:00,
2013-04-09 06:13:00,52.0,49.0,-100.00,East,95,5.0,6.0,87,0.00,,,-99.99,,2013-04-09 10:13:00,
2013-04-09 06:23:00,52.0,48.0,-100.00,East,90,4.0,6.0,84,0.00,,,-99.99,,2013-04-09 10:23:00,
2013-04-09 06:33:00,51.0,47.0,-100.00,East,95,4.0,6.0,85,0.00,,,-99.99,,2013-04-09 10:33:00,
2013-04-09 06:43:00,52.0,46.0,-100.00,East,80,4.0,6.0,82,0.00,,,-99.99,,2013-04-09 10:43:00,
2013-04-09 06:52:00,52.0,46.0,-100.00,East,80,5.0,7.0,81,0.00,,,-99.99,,2013-04-09 10:52:00,
2013-04-09 07:02:00,52.0,46.0,-100.00,East,90,4.0,6.0,79,0.00,,,-99.99,,2013-04-09 11:02:00,
2013-04-09 07:12:00,53.0,46.0,-100.00,East,95,6.0,8.0,77,0.00,,,-99.99,,2013-04-09 11:12:00,
2013-04-09 07:22:00,53.0,45.0,-100.00,East,80,4.0,6.0,75,0.00,,,-99.99,,2013-04-09 11:22:00,
2013-04-09 07:32:00,52.0,46.0,-100.00,East,80,4.0,6.0,78,0.00,,,-99.99,,2013-04-09 11:32:00,
2013-04-09 07:42:00,53.0,46.0,-100.00,ENE,70,5.0,7.0,76,0.00,,,-99.99,,2013-04-09 11:42:00,
2013-04-09 07:52:00,53.0,46.0,-100.00,East,85,4.0,6.0,77,0.00,,,-99.99,,2013-04-09 11:52:00,
2013-04-09 08:02:00,54.0,46.0,-100.00,ESE,105,6.0,8.0,74,0.00,,,-99.99,,2013-04-09 12:02:00,
2013-04-09 08:12:00,54.0,46.0,-100.00,ESE,115,6.0,8.0,73,0.00,,,-99.99,,2013-04-09 12:12:00,
2013-04-09 08:22:00,54.0,46.0,-100.00,ESE,115,4.0,7.0,75,0.00,,,-99.99,,2013-04-09 12:22:00,
2013-04-09 08:32:00,54.0,46.0,-100.00,East,100,6.0,7.0,75,0.00,,,-99.99,,2013-04-09 12:32:00,
2013-04-09 08:42:00,54.0,47.0,-100.00,ESE,115,7.0,9.0,76,0.00,,,-99.99,,2013-04-09 12:42:00,
2013-04-09 08:52:00,54.0,47.0,-100.00,ESE,105,4.0,7.0,76,0.00,,,-99.99,,2013-04-09 12:52:00,
2013-04-09 09:03:00,56.0,48.0,-100.00,ESE,120,6.0,8.0,74,0.00,,,-99.99,,2013-04-09 13:03:00,
2013-04-09 09:12:00,56.0,48.0,-100.00,ESE,110,7.0,10.0,74,0.00,,,-99.99,,2013-04-09 13:12:00,
2013-04-09 09:23:00,57.0,48.0,-100.00,ESE,110,8.0,11.0,71,0.00,,,-99.99,,2013-04-09 13:23:00,
2013-04-09 09:33:00,58.0,49.0,-100.00,ESE,110,7.0,12.0,73,0.00,,,-99.99,,2013-04-09 13:33:00,
2013-04-09 09:42:00,58.0,49.0,-100.00,ESE,120,9.0,13.0,70,0.00,,,-99.99,,2013-04-09 13:42:00,
2013-04-09 09:52:00,60.0,49.0,-100.00,ESE,115,9.0,15.0,68,0.00,,,-99.99,,2013-04-09 13:52:00,
2013-04-09 10:03:00,60.0,50.0,-100.00,SE,130,11.0,14.0,69,0.00,,,-99.99,,2013-04-09 14:03:00,
2013-04-09 10:12:00,61.0,51.0,-100.00,SE,130,9.0,12.0,69,0.00,,,-99.99,,2013-04-09 14:12:00,
2013-04-09 10:22:00,62.0,52.0,-100.00,SE,135,10.0,14.0,69,0.00,,,-99.99,,2013-04-09 14:22:00,
2013-04-09 10:32:00,63.0,52.0,-100.00,SE,135,10.0,12.0,67,0.00,,,-99.99,,2013-04-09 14:32:00,
2013-04-09 10:42:00,64.0,53.0,-100.00,SE,130,11.0,14.0,66,0.00,,,-99.99,,2013-04-09 14:42:00,
2013-04-09 10:52:00,66.0,54.0,-100.00,SSE,150,8.0,14.0,66,0.00,,,-99.99,,2013-04-09 14:52:00,
2013-04-09 11:02:00,65.0,54.0,-100.00,SE,145,9.0,14.0,66,0.00,,,-99.99,,2013-04-09 15:02:00,
2013-04-09 11:13:00,67.0,55.0,-100.00,SSE,150,8.0,14.0,65,0.00,,,-99.99,,2013-04-09 15:13:00,
2013-04-09 11:22:00,68.0,55.0,-100.00,SE,140,9.0,12.0,63,0.00,,,-99.99,,2013-04-09 15:22:00,
2013-04-09 11:34:00,69.0,55.0,-100.00,SSE,165,7.0,16.0,60,0.00,,,-99.99,,2013-04-09 15:34:00,
2013-04-09 11:43:00,70.0,55.0,-100.00,SSE,165,9.0,14.0,59,0.00,,,-99.99,,2013-04-09 15:43:00,
2013-04-09 11:53:00,72.0,56.0,-100.00,South,170,10.0,19.0,57,0.00,,,-99.99,,2013-04-09 15:53:00,
2013-04-09 12:03:00,70.0,55.0,-100.00,South,185,13.0,19.0,59,0.00,,,-99.99,,2013-04-09 16:03:00,
2013-04-09 12:13:00,71.0,55.0,-100.00,South,185,11.0,14.0,56,0.00,,,-99.99,,2013-04-09 16:13:00,
2013-04-09 12:23:00,73.0,56.0,-100.00,SSW,195,11.0,17.0,56,0.00,,,-99.99,,2013-04-09 16:23:00,
2013-04-09 12:33:00,74.0,56.0,-100.00,SSE,165,12.0,19.0,53,0.00,,,-99.99,,2013-04-09 16:33:00,
2013-04-09 12:42:00,74.0,55.0,-100.00,SSE,165,11.0,24.0,51,0.00,,,-99.99,,2013-04-09 16:42:00,
2013-04-09 12:53:00,74.0,55.0,-100.00,SSW,195,9.0,22.0,51,0.00,,,-99.99,,2013-04-09 16:53:00,
2013-04-09 13:02:00,76.0,57.0,-100.00,SSW,195,12.0,18.0,51,0.00,,,-99.99,,2013-04-09 17:02:00,
2013-04-09 13:13:00,76.0,57.0,-100.00,South,190,11.0,19.0,50,0.00,,,-99.99,,2013-04-09 17:13:00,
2013-04-09 13:23:00,77.0,56.0,-100.00,South,185,15.0,30.0,48,0.00,,,-99.99,,2013-04-09 17:23:00,
2013-04-09 13:32:00,78.0,56.0,-100.00,SSW,200,12.0,22.0,47,0.00,,,-99.99,,2013-04-09 17:32:00,
2013-04-09 13:42:00,78.0,56.0,-100.00,South,180,16.0,27.0,45,-99.99,,,-99.99,,2013-04-09 17:42:00,
2013-04-09 13:53:00,78.0,55.0,-100.00,South,175,18.0,29.0,45,0.00,,,-99.99,,2013-04-09 17:53:00,
2013-04-09 14:02:00,79.0,56.0,-100.00,South,185,18.0,26.0,44,0.00,,,-99.99,,2013-04-09 18:02:00,
2013-04-09 14:13:00,79.0,56.0,-100.00,SSW,205,17.0,29.0,44,0.00,,,-99.99,,2013-04-09 18:13:00,
2013-04-09 14:22:00,78.0,56.0,-100.00,South,190,19.0,30.0,46,0.00,,,-99.99,,2013-04-09 18:22:00,
2013-04-09 14:33:00,79.0,56.0,-100.00,SSW,195,18.0,29.0,44,0.00,,,-99.99,,2013-04-09 18:33:00,
2013-04-09 14:43:00,79.0,56.0,-100.00,SSW,210,10.0,29.0,45,0.00,,,-99.99,,2013-04-09 18:43:00,
2013-04-09 14:52:00,79.0,56.0,-100.00,SSW,195,17.0,32.0,44,0.00,,,-99.99,,2013-04-09 18:52:00,
2013-04-09 15:03:00,79.0,56.0,-100.00,SSW,195,17.0,32.0,44,0.00,,,-99.99,,2013-04-09 19:03:00,
2013-04-09 15:12:00,79.0,56.0,-100.00,SSW,195,17.0,32.0,44,0.00,,,-99.99,,2013-04-09 19:12:00,
2013-04-09 15:22:00,79.0,55.0,-100.00,SSW,195,18.0,35.0,43,0.00,,,-99.99,,2013-04-09 19:22:00,
2013-04-09 15:32:00,79.0,55.0,-100.00,South,185,22.0,30.0,43,0.00,,,-99.99,,2013-04-09 19:32:00,
2013-04-09 15:42:00,79.0,55.0,-100.00,South,185,22.0,30.0,43,0.00,,,-99.99,,2013-04-09 19:42:00,
2013-04-09 15:52:00,80.0,55.0,-100.00,SSW,200,17.0,35.0,41,0.00,,,-99.99,,2013-04-09 19:52:00,
2013-04-09 16:02:00,80.0,55.0,-100.00,South,185,14.0,24.0,42,-99.99,,,-99.99,,2013-04-09 20:02:00,
2013-04-09 16:12:00,80.0,55.0,-100.00,SSW,200,14.0,30.0,42,0.00,,,-99.99,,2013-04-09 20:12:00,
2013-04-09 16:22:00,80.0,55.0,-100.00,South,185,21.0,37.0,42,0.00,,,-99.99,,2013-04-09 20:22:00,
2013-04-09 16:34:00,79.0,55.0,-100.00,South,190,24.0,34.0,42,0.00,,,-99.99,,2013-04-09 20:34:00,
2013-04-09 16:43:00,79.0,55.0,-100.00,SSW,195,15.0,32.0,43,0.00,,,-99.99,,2013-04-09 20:43:00,
2013-04-09 16:52:00,78.0,55.0,-100.00,SSW,195,16.0,30.0,44,0.00,,,-99.99,,2013-04-09 20:52:00,
2013-04-09 17:02:00,79.0,56.0,-100.00,South,190,15.0,24.0,44,0.00,,,-99.99,,2013-04-09 21:02:00,
2013-04-09 17:13:00,79.0,55.0,-100.00,South,185,12.0,22.0,44,0.00,,,-99.99,,2013-04-09 21:13:00,
2013-04-09 17:22:00,79.0,55.0,-100.00,South,185,12.0,22.0,44,0.00,,,-99.99,,2013-04-09 21:22:00,
2013-04-09 17:33:00,79.0,55.0,-100.00,SSW,195,16.0,31.0,44,0.00,,,-99.99,,2013-04-09 21:33:00,
2013-04-09 17:42:00,79.0,55.0,-100.00,SSW,195,16.0,31.0,44,0.00,,,-99.99,,2013-04-09 21:42:00,
2013-04-09 17:52:00,79.0,54.0,-100.00,SSW,210,7.0,22.0,42,0.00,,,-99.99,,2013-04-09 21:52:00,
2013-04-09 18:03:00,79.0,55.0,-100.00,SW,225,9.0,18.0,43,0.00,,,-99.99,,2013-04-09 22:03:00,
2013-04-09 18:13:00,79.0,55.0,-100.00,SSW,195,12.0,24.0,42,0.00,,,-99.99,,2013-04-09 22:13:00,
2013-04-09 18:23:00,80.0,53.0,-100.00,SSW,210,10.0,17.0,39,0.00,,,-99.99,,2013-04-09 22:23:00,
2013-04-09 18:33:00,79.0,54.0,-100.00,SW,220,7.0,22.0,42,0.00,,,-99.99,,2013-04-09 22:33:00,
2013-04-09 18:42:00,79.0,53.0,-100.00,SSW,210,7.0,22.0,41,0.00,,,-99.99,,2013-04-09 22:42:00,
2013-04-09 18:53:00,78.0,53.0,-100.00,SW,215,12.0,19.0,41,0.00,,,-99.99,,2013-04-09 22:53:00,
2013-04-09 19:03:00,78.0,53.0,-100.00,SW,215,11.0,22.0,42,0.00,,,-99.99,,2013-04-09 23:03:00,
2013-04-09 19:12:00,78.0,54.0,-100.00,South,190,11.0,17.0,43,0.00,,,-99.99,,2013-04-09 23:12:00,
2013-04-09 19:23:00,77.0,54.0,-100.00,SSW,205,10.0,17.0,45,0.00,,,-99.99,,2013-04-09 23:23:00,
2013-04-09 19:32:00,77.0,54.0,-100.00,South,180,9.0,19.0,46,0.00,,,-99.99,,2013-04-09 23:32:00,
2013-04-09 19:42:00,76.0,55.0,-100.00,SSW,200,9.0,17.0,47,0.00,,,-99.99,,2013-04-09 23:42:00,
2013-04-09 19:52:00,76.0,54.0,-100.00,SW,215,7.0,19.0,47,0.00,,,-99.99,,2013-04-09 23:52:00,
2013-04-09 20:03:00,76.0,55.0,-100.00,SSW,200,7.0,12.0,47,0.00,,,-99.99,,2013-04-10 00:03:00,
2013-04-09 20:12:00,76.0,55.0,-100.00,SSW,200,7.0,12.0,47,0.00,,,-99.99,,2013-04-10 00:12:00,
2013-04-09 20:23:00,75.0,55.0,-100.00,SSW,200,5.0,9.0,50,0.00,,,-99.99,,2013-04-10 00:23:00,
2013-04-09 20:33:00,74.0,55.0,-100.00,SW,235,4.0,10.0,50,0.00,,,-99.99,,2013-04-10 00:33:00,
2013-04-09 20:42:00,74.0,54.0,-100.00,SW,215,7.0,13.0,48,0.00,,,-99.99,,2013-04-10 00:42:00,
2013-04-09 20:52:00,75.0,53.0,-100.00,SW,225,7.0,16.0,46,0.00,,,-99.99,,2013-04-10 00:52:00,
2013-04-09 21:02:00,74.0,52.0,-100.00,West,260,6.0,14.0,46,0.00,,,-99.99,,2013-04-10 01:02:00,
2013-04-09 21:12:00,73.0,53.0,-100.00,West,265,1.0,12.0,49,0.00,,,-99.99,,2013-04-10 01:12:00,
2013-04-09 21:23:00,72.0,53.0,-100.00,SW,230,0.0,11.0,50,0.00,,,-99.99,,2013-04-10 01:23:00,
2013-04-09 21:32:00,73.0,53.0,-100.00,SSW,200,0.0,2.0,50,0.00,,,-99.99,,2013-04-10 01:32:00,
2013-04-09 21:42:00,71.0,53.0,-100.00,South,190,0.0,6.0,52,0.00,,,-99.99,,2013-04-10 01:42:00,
2013-04-09 21:52:00,70.0,53.0,-100.00,South,175,0.0,2.0,54,0.00,,,-99.99,,2013-04-10 01:52:00,
2013-04-09 22:02:00,70.0,53.0,-100.00,South,190,0.0,1.0,55,0.00,,,-99.99,,2013-04-10 02:02:00,
2013-04-09 22:12:00,69.0,53.0,-100.00,South,180,0.0,2.0,56,0.00,,,-99.99,,2013-04-10 02:12:00,
2013-04-09 22:22:00,69.0,53.0,-100.00,South,180,0.0,1.0,56,0.00,,,-99.99,,2013-04-10 02:22:00,
2013-04-09 22:33:00,68.0,53.0,-100.00,South,175,0.0,3.0,57,0.00,,,-99.99,,2013-04-10 02:33:00,
2013-04-09 22:43:00,68.0,53.0,-100.00,South,180,0.0,1.0,58,0.00,,,-99.99,,2013-04-10 02:43:00,
2013-04-09 22:52:00,67.0,53.0,-100.00,South,175,0.0,0.0,59,0.00,,,-99.99,,2013-04-10 02:52:00,
2013-04-09 23:03:00,66.0,52.0,-100.00,SSE,160,0.0,4.0,61,0.00,,,-99.99,,2013-04-10 03:03:00,
2013-04-09 23:12:00,67.0,53.0,-100.00,SSW,195,0.0,7.0,60,0.00,,,-99.99,,2013-04-10 03:12:00,
2013-04-09 23:22:00,66.0,53.0,-100.00,South,180,0.0,1.0,62,0.00,,,-99.99,,2013-04-10 03:22:00,
2013-04-09 23:33:00,66.0,53.0,-100.00,South,175,0.0,0.0,62,0.00,,,-99.99,,2013-04-10 03:33:00,
2013-04-09 23:43:00,66.0,53.0,-100.00,South,190,0.0,3.0,62,0.00,,,-99.99,,2013-04-10 03:43:00,
2013-04-09 23:52:00,67.0,53.0,-100.00,South,190,0.0,3.0,62,0.00,,,-99.99,,2013-04-10 03:52:00,